Time;durP1;ratioP1;P1;durP2;ratioP2;P2;SDS_P1;SDS_P2;PMS_P1;PMS_P2;Temp;Humidity;BMP_temperature;BMP_pressure;BME280_temperature;BME280_humidity;BME280_pressure;Samples;Min_cycle;Max_cycle;Signal;HPM_P1;HPM_P2
2023/01/01 00:01:57;;;;;;;74.20;35.45;;;;;;;3.19;100.00;96068.69;5128254;27;20230;-78
2023/01/01 00:04:27;;;;;;;59.40;29.35;;;;;;;3.02;100.00;96070.56;5133468;27;20196;-78
2023/01/01 00:07:02;;;;;;;80.15;40.28;;;;;;;3.02;100.00;96062.53;5134748;27;20603;-78
2023/01/01 00:12:12;;;;;;;66.30;31.38;;;;;;;2.89;100.00;96073.56;5140893;27;20262;-79
2023/01/01 00:14:43;;;;;;;79.72;37.17;;;;;;;3.02;100.00;96081.28;5129986;27;20228;-79
2023/01/01 00:17:10;;;;;;;64.03;29.70;;;;;;;3.10;100.00;96078.22;5134180;27;20646;-78
2023/01/01 00:19:38;;;;;;;93.63;40.10;;;;;;;3.13;100.00;96083.09;5131123;27;20281;-78
2023/01/01 00:22:05;;;;;;;81.13;39.60;;;;;;;3.11;100.00;96079.84;5140174;27;20221;-77
2023/01/01 00:24:31;;;;;;;78.28;34.67;;;;;;;3.08;100.00;96085.66;5128520;27;20201;-78
2023/01/01 00:26:58;;;;;;;90.93;38.42;;;;;;;2.90;100.00;96084.03;5133916;27;20255;-78
2023/01/01 00:29:26;;;;;;;76.50;33.10;;;;;;;2.93;100.00;96082.75;5132008;27;20636;-80
2023/01/01 00:32:00;;;;;;;84.72;38.55;;;;;;;2.93;100.00;96093.47;5125217;27;20197;-78
2023/01/01 00:34:27;;;;;;;78.80;35.38;;;;;;;2.91;100.00;96095.56;5124330;27;20562;-79
2023/01/01 00:36:56;;;;;;;64.43;30.15;;;;;;;2.93;100.00;96101.47;5130975;27;20235;-79
2023/01/01 00:39:32;;;;;;;59.42;29.13;;;;;;;2.97;100.00;96083.91;5132180;27;20205;-79
2023/01/01 00:41:58;;;;;;;84.82;32.42;;;;;;;3.03;100.00;96083.72;5126673;27;20193;-79
2023/01/01 00:44:25;;;;;;;78.00;33.08;;;;;;;2.98;100.00;96080.97;5122500;27;20202;-78
2023/01/01 00:46:52;;;;;;;81.93;35.33;;;;;;;2.87;100.00;96087.19;5125269;27;20204;-76
2023/01/01 00:49:19;;;;;;;84.70;34.95;;;;;;;2.83;100.00;96100.28;5134769;27;20239;-79
2023/01/01 00:51:53;;;;;;;64.93;31.02;;;;;;;2.81;100.00;96098.88;5125020;27;20216;-78
2023/01/01 00:54:21;;;;;;;62.33;20.15;;;;;;;2.79;100.00;96093.78;5123447;27;20254;-78
2023/01/01 00:56:52;;;;;;;36.85;16.13;;;;;;;2.80;100.00;96090.06;5132233;27;20663;-79
2023/01/01 00:59:19;;;;;;;40.28;17.38;;;;;;;2.89;100.00;96097.66;5122993;27;20208;-79
2023/01/01 01:01:54;;;;;;;28.85;13.60;;;;;;;2.83;100.00;96100.28;5136943;27;20250;-78
2023/01/01 01:04:27;;;;;;;37.90;15.70;;;;;;;2.90;100.00;96093.94;5130472;27;20247;-78
2023/01/01 01:06:56;;;;;;;38.42;18.38;;;;;;;2.93;100.00;96093.47;5129945;27;20202;-78
2023/01/01 01:09:25;;;;;;;37.25;19.13;;;;;;;2.89;100.00;96097.66;5124402;27;20229;-78
2023/01/01 01:11:51;;;;;;;37.95;14.60;;;;;;;2.88;100.00;96090.69;5122614;27;20198;-79
2023/01/01 01:14:18;;;;;;;29.30;13.02;;;;;;;2.72;100.00;96087.78;5136478;27;20228;-79
2023/01/01 01:16:45;;;;;;;25.75;12.32;;;;;;;2.72;100.00;96087.78;5123138;27;20221;-76
2023/01/01 01:19:14;;;;;;;24.77;11.75;;;;;;;2.68;100.00;96086.63;5127949;27;20251;-78
2023/01/01 01:21:42;;;;;;;23.10;10.82;;;;;;;2.78;100.00;96089.47;5131142;27;20559;-78
2023/01/01 01:24:10;;;;;;;30.48;12.95;;;;;;;2.85;100.00;96084.78;5136388;27;20300;-77
2023/01/01 01:26:38;;;;;;;23.83;11.32;;;;;;;2.81;100.00;96086.31;5135759;27;20714;-78
2023/01/01 01:29:08;;;;;;;24.98;11.65;;;;;;;2.85;100.00;96082.13;5125795;27;20237;-77
2023/01/01 01:31:53;;;;;;;29.02;12.13;;;;;;;2.83;100.00;96078.88;5119583;27;20205;-78
2023/01/01 01:34:19;;;;;;;25.25;10.60;;;;;;;2.71;100.00;96070.09;5122842;27;20197;-77
2023/01/01 01:36:52;;;;;;;19.02;9.55;;;;;;;2.76;100.00;96078.19;5128341;27;20202;-79
2023/01/01 01:39:21;;;;;;;29.60;14.27;;;;;;;2.70;100.00;96076.50;5125430;27;20224;-79
2023/01/01 01:41:49;;;;;;;31.90;14.55;;;;;;;2.64;100.00;96077.47;5110901;28;20632;-79
2023/01/01 01:44:49;;;;;;;22.48;10.18;;;;;;;2.54;100.00;96074.63;5123186;27;20204;-77
2023/01/01 01:47:22;;;;;;;24.45;11.35;;;;;;;2.47;100.00;96079.31;5124501;27;20258;-77
2023/01/01 01:49:56;;;;;;;34.63;12.30;;;;;;;2.48;100.00;96075.56;5117986;27;20244;-80
2023/01/01 01:52:29;;;;;;;20.08;10.85;;;;;;;2.47;100.00;96073.94;5131298;27;20197;-78
2023/01/01 01:54:56;;;;;;;26.60;11.63;;;;;;;2.44;100.00;96063.75;5119654;27;20548;-79
2023/01/01 01:57:27;;;;;;;20.63;10.95;;;;;;;2.43;100.00;96067.47;5118228;27;20236;-79
2023/01/01 01:59:56;;;;;;;35.85;16.35;;;;;;;2.62;100.00;96081.44;5122789;27;20247;-79
2023/01/01 02:02:37;;;;;;;18.38;8.38;;;;;;;2.65;100.00;96076.41;5124505;27;20200;-78
2023/01/01 02:05:07;;;;;;;36.50;12.20;;;;;;;2.63;100.00;96083.88;5122766;27;20201;-77
2023/01/01 02:07:34;;;;;;;24.33;10.80;;;;;;;2.46;100.00;96093.75;5117966;27;20257;-78
2023/01/01 02:10:04;;;;;;;25.50;11.52;;;;;;;2.34;100.00;96092.97;5119047;27;20233;-78
2023/01/01 02:12:32;;;;;;;24.00;10.48;;;;;;;2.22;100.00;96097.56;5130691;27;20197;-78
2023/01/01 02:15:14;;;;;;;36.38;15.43;;;;;;;2.04;100.00;96102.06;5118193;27;20225;-77
2023/01/01 02:17:55;;;;;;;37.55;17.83;;;;;;;2.13;100.00;96102.47;5119544;27;20193;-79
2023/01/01 02:20:48;;;;;;;33.13;12.70;;;;;;;2.30;100.00;96105.22;5117417;27;20232;-80
2023/01/01 02:23:52;;;;;;;19.38;8.98;;;;;;;2.20;100.00;96105.00;5098559;27;20304;-80
2023/01/01 02:26:42;;;;;;;51.78;20.25;;;;;;;2.10;100.00;96111.78;5118501;27;20238;-78
2023/01/01 02:29:20;;;;;;;44.67;19.45;;;;;;;2.15;100.00;96097.72;5119720;27;20278;-78
2023/01/01 02:31:52;;;;;;;35.97;15.90;;;;;;;2.24;100.00;96106.16;5127367;27;20285;-78
2023/01/01 02:34:25;;;;;;;32.05;17.92;;;;;;;2.25;100.00;96097.09;5122172;27;20197;-78
2023/01/01 02:36:56;;;;;;;29.90;14.68;;;;;;;2.35;100.00;96094.59;5111656;27;20206;-78
2023/01/01 02:39:27;;;;;;;28.15;13.27;;;;;;;2.37;100.00;96089.81;5124090;27;20273;-78
2023/01/01 02:41:56;;;;;;;38.28;17.02;;;;;;;2.44;100.00;96090.50;5117173;27;20616;-78
2023/01/01 02:44:26;;;;;;;39.95;16.88;;;;;;;2.32;100.00;96089.75;5116566;27;20208;-78
2023/01/01 02:46:53;;;;;;;47.83;18.10;;;;;;;2.31;100.00;96088.94;5119320;27;20193;-78
2023/01/01 02:49:20;;;;;;;31.08;14.60;;;;;;;2.33;100.00;96094.00;5118162;27;20241;-78
2023/01/01 02:52:01;;;;;;;26.33;11.02;;;;;;;2.33;100.00;96099.38;5131140;27;20245;-78
2023/01/01 02:54:37;;;;;;;30.95;14.90;;;;;;;2.27;100.00;96092.31;5125879;27;20207;-78
2023/01/01 02:57:10;;;;;;;30.13;15.15;;;;;;;2.16;100.00;96088.66;5122567;27;20640;-78
2023/01/01 03:02:47;;;;;;;31.50;15.43;;;;;;;2.18;100.00;96083.06;5116354;27;20245;-79
2023/01/01 03:05:20;;;;;;;34.22;14.57;;;;;;;2.16;100.00;96077.13;5118003;27;20185;-78
2023/01/01 03:07:59;;;;;;;34.75;14.98;;;;;;;2.24;100.00;96079.41;5117081;27;20246;-78
2023/01/01 03:10:33;;;;;;;32.95;16.17;;;;;;;2.22;100.00;96081.50;5116782;27;20274;-78
2023/01/01 03:13:07;;;;;;;34.80;14.88;;;;;;;2.12;100.00;96082.97;5130991;27;20234;-77
2023/01/01 03:15:44;;;;;;;30.70;13.48;;;;;;;2.01;100.00;96091.03;5116210;28;20228;-77
2023/01/01 03:18:16;;;;;;;31.83;15.05;;;;;;;1.97;100.00;96085.34;5118379;27;20189;-77
2023/01/01 03:20:48;;;;;;;30.40;14.90;;;;;;;2.05;100.00;96092.97;5124100;27;20226;-78
2023/01/01 03:23:19;;;;;;;34.97;15.80;;;;;;;1.99;100.00;96093.94;5110000;28;20186;-78
2023/01/01 03:25:49;;;;;;;35.45;16.27;;;;;;;2.03;100.00;96095.09;5117302;28;20656;-79
2023/01/01 03:28:19;;;;;;;32.97;14.70;;;;;;;2.07;100.00;96101.56;5116053;28;20197;-77
2023/01/01 03:30:51;;;;;;;37.03;14.63;;;;;;;2.18;100.00;96096.44;5121426;28;20757;-77
2023/01/01 03:33:23;;;;;;;44.33;17.83;;;;;;;2.19;100.00;96087.38;5111884;28;20785;-78
2023/01/01 03:35:55;;;;;;;29.75;13.38;;;;;;;2.12;100.00;96088.31;5121007;28;20243;-78
2023/01/01 03:38:28;;;;;;;30.63;13.68;;;;;;;2.09;100.00;96096.78;5124276;28;20194;-77
2023/01/01 03:40:59;;;;;;;43.22;16.15;;;;;;;2.05;100.00;96084.94;5120974;28;20249;-79
2023/01/01 03:43:37;;;;;;;30.30;13.93;;;;;;;2.06;100.00;96088.44;5129876;28;20222;-78
2023/01/01 03:46:08;;;;;;;32.47;13.18;;;;;;;1.97;100.00;96100.56;5116216;28;20238;-78
2023/01/01 03:48:54;;;;;;;44.38;13.70;;;;;;;1.87;100.00;96087.81;5117177;28;20699;-78
2023/01/01 03:51:27;;;;;;;26.90;11.95;;;;;;;1.93;100.00;96088.72;5115964;28;20643;-78
2023/01/01 03:53:59;;;;;;;25.75;13.88;;;;;;;2.00;100.00;96094.75;5117048;28;20248;-78
2023/01/01 03:56:38;;;;;;;30.23;14.32;;;;;;;2.08;100.00;96091.69;5114585;28;20208;-78
2023/01/01 03:59:12;;;;;;;46.72;15.23;;;;;;;2.11;100.00;96097.38;5123139;28;20258;-78
2023/01/01 04:01:44;;;;;;;44.67;15.57;;;;;;;2.12;100.00;96088.31;5119827;28;20659;-77
2023/01/01 04:04:12;;;;;;;34.88;13.18;;;;;;;2.14;100.00;96098.75;5125869;28;20208;-78
2023/01/01 04:06:39;;;;;;;33.40;15.18;;;;;;;2.17;100.00;96089.47;5121284;27;20257;-77
2023/01/01 04:09:14;;;;;;;30.15;12.65;;;;;;;2.08;100.00;96092.50;5119628;27;20367;-77
2023/01/01 04:14:30;;;;;;;25.90;12.15;;;;;;;2.13;100.00;96087.25;5121725;27;20238;-78
2023/01/01 04:16:58;;;;;;;30.95;13.77;;;;;;;1.99;100.00;96098.47;5119959;27;20209;-78
2023/01/01 04:19:25;;;;;;;27.25;13.02;;;;;;;1.85;100.00;96091.75;5124219;27;20209;-78
2023/01/01 04:21:52;;;;;;;23.63;9.68;;;;;;;1.83;100.00;96099.19;5126528;27;20259;-78
2023/01/01 04:24:19;;;;;;;25.67;10.07;;;;;;;1.84;100.00;96101.63;5122358;27;20200;-76
2023/01/01 04:26:46;;;;;;;22.83;10.02;;;;;;;1.81;100.00;96102.09;5120179;27;20215;-79
2023/01/01 04:29:12;;;;;;;25.95;11.20;;;;;;;1.91;100.00;96105.00;5123634;27;20326;-77
2023/01/01 04:31:39;;;;;;;24.40;11.35;;;;;;;1.91;100.00;96102.34;5126384;27;20201;-79
2023/01/01 04:34:07;;;;;;;26.88;11.98;;;;;;;2.03;100.00;96105.78;5123004;27;20205;-77
2023/01/01 04:36:35;;;;;;;35.17;17.20;;;;;;;2.04;100.00;96102.06;5129220;27;20254;-79
2023/01/01 04:39:02;;;;;;;24.35;12.88;;;;;;;2.06;100.00;96105.28;5123389;27;20217;-78
2023/01/01 04:41:28;;;;;;;28.55;12.43;;;;;;;1.99;100.00;96109.97;5120047;27;20197;-78
2023/01/01 04:43:55;;;;;;;20.63;9.82;;;;;;;1.84;100.00;96112.31;5121978;27;20201;-78
2023/01/01 04:46:23;;;;;;;32.05;14.40;;;;;;;1.74;100.00;96109.44;5125858;27;20217;-78
2023/01/01 04:48:50;;;;;;;18.58;10.30;;;;;;;1.70;100.00;96100.28;5122777;27;20220;-77
2023/01/01 04:51:20;;;;;;;28.52;11.27;;;;;;;1.69;100.00;96106.66;5133239;27;20209;-79
2023/01/01 04:53:47;;;;;;;42.10;19.75;;;;;;;1.67;100.00;96111.41;5120406;27;20686;-78
2023/01/01 04:56:16;;;;;;;30.98;11.85;;;;;;;1.72;100.00;96098.19;5126541;27;20737;-77
2023/01/01 04:58:43;;;;;;;40.47;14.45;;;;;;;1.74;100.00;96109.44;5119881;27;20206;-78
2023/01/01 05:01:16;;;;;;;45.03;16.67;;;;;;;1.70;100.00;96105.63;5126091;27;20209;-77
2023/01/01 05:03:43;;;;;;;27.85;11.18;;;;;;;1.79;100.00;96104.19;5126971;27;20197;-78
2023/01/01 05:06:11;;;;;;;39.70;16.75;;;;;;;1.83;100.00;96104.53;5125680;27;20262;-77
2023/01/01 05:08:42;;;;;;;22.90;12.15;;;;;;;1.98;100.00;96108.34;5126491;27;20242;-78
2023/01/01 05:11:11;;;;;;;38.13;13.20;;;;;;;1.85;100.00;96103.25;5120624;27;20308;-78
2023/01/01 05:13:39;;;;;;;25.90;13.18;;;;;;;1.69;100.00;96120.81;5119042;27;20205;-77
2023/01/01 05:16:08;;;;;;;26.77;10.68;;;;;;;1.72;100.00;96114.22;5132986;27;20235;-77
2023/01/01 05:18:36;;;;;;;23.60;11.00;;;;;;;1.78;100.00;96114.06;5119319;27;20307;-77
2023/01/01 05:21:05;;;;;;;32.53;14.73;;;;;;;1.77;100.00;96106.31;5123294;27;20229;-79
2023/01/01 05:23:32;;;;;;;27.75;12.57;;;;;;;1.80;100.00;96116.50;5126626;27;20205;-77
2023/01/01 05:26:08;;;;;;;28.08;12.35;;;;;;;1.81;100.00;96107.44;5123100;27;20201;-76
2023/01/01 05:28:35;;;;;;;27.73;12.05;;;;;;;1.71;100.00;96118.75;5119198;27;20207;-79
2023/01/01 05:31:06;;;;;;;28.13;9.10;;;;;;;1.75;100.00;96108.41;5120815;27;20303;-77
2023/01/01 05:33:33;;;;;;;26.38;11.85;;;;;;;1.83;100.00;96110.69;5117174;27;20609;-78
2023/01/01 05:36:00;;;;;;;21.33;9.98;;;;;;;1.79;100.00;96117.56;5120742;27;20292;-78
2023/01/01 05:38:26;;;;;;;24.95;12.32;;;;;;;1.71;100.00;96128.59;5125780;27;20259;-77
2023/01/01 05:40:53;;;;;;;27.67;11.70;;;;;;;1.68;100.00;96121.06;5124227;27;20303;-78
2023/01/01 05:43:21;;;;;;;27.50;12.40;;;;;;;1.69;100.00;96120.00;5118632;27;20253;-76
2023/01/01 05:45:49;;;;;;;37.42;13.77;;;;;;;1.78;100.00;96116.75;5121142;27;20735;-77
2023/01/01 05:48:15;;;;;;;28.63;12.60;;;;;;;1.81;100.00;96128.81;5125791;27;20226;-79
2023/01/01 05:50:42;;;;;;;32.97;15.75;;;;;;;1.85;100.00;96127.31;5125487;27;20221;-78
2023/01/01 05:53:12;;;;;;;36.28;12.02;;;;;;;1.87;100.00;96125.22;5118980;27;20663;-78
2023/01/01 05:55:39;;;;;;;32.15;12.93;;;;;;;1.82;100.00;96125.09;5118038;27;20227;-79
2023/01/01 05:58:05;;;;;;;26.90;11.20;;;;;;;1.88;100.00;96123.34;5120097;27;20196;-79
2023/01/01 06:00:33;;;;;;;26.60;14.20;;;;;;;1.95;100.00;96132.84;5117763;27;20201;-76
2023/01/01 06:03:00;;;;;;;23.85;10.90;;;;;;;1.77;100.00;96114.31;5120098;27;20596;-78
2023/01/01 06:05:27;;;;;;;25.75;12.65;;;;;;;1.85;100.00;96129.97;5118357;27;20726;-79
2023/01/01 06:07:54;;;;;;;23.77;11.82;;;;;;;1.76;100.00;96128.72;5123720;27;20198;-78
2023/01/01 06:10:20;;;;;;;30.60;11.98;;;;;;;1.80;100.00;96132.53;5125862;27;20238;-79
2023/01/01 06:12:47;;;;;;;30.42;13.18;;;;;;;1.92;100.00;96125.31;5119833;27;20645;-79
2023/01/01 06:15:15;;;;;;;30.95;14.98;;;;;;;2.03;100.00;96129.81;5130213;27;20233;-78
2023/01/01 06:17:45;;;;;;;30.65;12.27;;;;;;;2.23;100.00;96131.25;5120693;27;20197;-78
2023/01/01 06:20:12;;;;;;;32.05;12.30;;;;;;;2.50;100.00;96124.28;5118667;27;20225;-78
2023/01/01 06:22:39;;;;;;;38.00;15.43;;;;;;;2.60;100.00;96132.50;5121599;27;20924;-78
2023/01/01 06:25:07;;;;;;;33.78;14.55;;;;;;;2.89;100.00;96129.78;5125145;27;20201;-78
2023/01/01 06:27:35;;;;;;;36.50;16.05;;;;;;;2.98;100.00;96126.47;5121090;27;20204;-78
2023/01/01 06:30:02;;;;;;;29.77;15.07;;;;;;;3.05;100.00;96124.44;5117143;27;20262;-78
2023/01/01 06:32:28;;;;;;;42.08;17.13;;;;;;;3.11;100.00;96134.19;5121080;27;20301;-78
2023/01/01 06:34:57;;;;;;;45.25;17.73;;;;;;;3.09;100.00;96130.13;5124932;27;20254;-78
2023/01/01 06:37:24;;;;;;;39.08;18.02;;;;;;;3.07;100.00;96135.72;5122407;27;20200;-78
2023/01/01 06:39:50;;;;;;;39.90;17.63;;;;;;;3.08;99.96;96139.22;5117189;27;20209;-78
2023/01/01 06:42:17;;;;;;;32.63;16.25;;;;;;;3.02;99.83;96148.19;5120109;27;20201;-78
2023/01/01 06:44:44;;;;;;;31.50;16.05;;;;;;;3.06;99.69;96152.03;5129074;27;20727;-77
2023/01/01 06:47:11;;;;;;;43.95;20.38;;;;;;;3.15;99.91;96150.56;5120017;27;20638;-79
2023/01/01 06:49:37;;;;;;;37.10;16.15;;;;;;;3.19;99.44;96149.03;5115681;27;20250;-78
2023/01/01 06:52:05;;;;;;;50.55;17.40;;;;;;;3.30;99.39;96148.13;5131041;27;20197;-78
2023/01/01 06:54:32;;;;;;;39.05;17.90;;;;;;;3.33;99.49;96163.72;5130768;27;20269;-78
2023/01/01 06:56:59;;;;;;;39.88;14.98;;;;;;;3.50;98.91;96158.34;5118608;27;20218;-78
2023/01/01 06:59:26;;;;;;;43.17;19.27;;;;;;;3.55;98.12;96169.94;5129797;27;20582;-78
2023/01/01 07:01:52;;;;;;;50.20;22.50;;;;;;;3.65;98.78;96166.63;5118457;27;20213;-80
2023/01/01 07:04:19;;;;;;;46.83;22.02;;;;;;;3.65;99.54;96163.13;5123768;27;20198;-78
2023/01/01 07:06:46;;;;;;;47.72;20.45;;;;;;;3.88;98.98;96168.28;5123681;27;20208;-77
2023/01/01 07:09:14;;;;;;;49.85;20.30;;;;;;;3.97;97.23;96174.00;5117145;27;20200;-79
2023/01/01 07:11:41;;;;;;;50.22;24.08;;;;;;;4.04;98.28;96167.41;5130294;27;20246;-79
2023/01/01 07:14:08;;;;;;;62.00;25.50;;;;;;;4.05;98.75;96160.19;5116856;27;20236;-79
2023/01/01 07:16:34;;;;;;;69.85;28.13;;;;;;;4.17;98.46;96159.00;5117506;27;20656;-79
2023/01/01 07:19:01;;;;;;;61.30;27.17;;;;;;;4.18;97.66;96154.47;5123995;27;20221;-78
2023/01/01 07:21:30;;;;;;;65.32;28.13;;;;;;;4.44;97.74;96158.25;5123265;28;20205;-79
2023/01/01 07:23:59;;;;;;;68.88;25.75;;;;;;;4.56;97.30;96162.41;5116634;28;20655;-79
2023/01/01 07:26:28;;;;;;;62.40;26.65;;;;;;;4.63;96.56;96162.22;5116867;28;20201;-78
2023/01/01 07:28:55;;;;;;;63.00;27.65;;;;;;;4.68;95.13;96164.13;5122879;28;20201;-80
2023/01/01 07:31:22;;;;;;;63.80;26.88;;;;;;;4.69;95.41;96155.03;5124509;28;20771;-80
2023/01/01 07:33:49;;;;;;;61.80;26.67;;;;;;;4.79;95.80;96147.88;5123175;28;20201;-78
2023/01/01 07:36:16;;;;;;;70.63;28.80;;;;;;;4.88;95.46;96157.13;5123892;28;20289;-79
2023/01/01 07:38:43;;;;;;;81.47;35.55;;;;;;;4.93;94.93;96159.84;5117882;28;20830;-78
2023/01/01 07:41:10;;;;;;;80.60;36.97;;;;;;;5.02;94.85;96159.38;5117184;27;20615;-79
2023/01/01 07:43:38;;;;;;;65.18;28.55;;;;;;;5.14;94.45;96151.97;5127296;27;20203;-78
2023/01/01 07:46:05;;;;;;;79.47;33.60;;;;;;;5.14;94.57;96146.59;5115572;27;20201;-78
2023/01/01 07:48:32;;;;;;;79.10;32.55;;;;;;;4.99;95.33;96148.09;5126168;27;20696;-79
2023/01/01 07:50:58;;;;;;;78.78;33.85;;;;;;;5.27;94.13;96151.56;5127909;27;20610;-79
2023/01/01 07:53:30;;;;;;;89.78;35.40;;;;;;;5.22;92.86;96159.56;5123594;27;20193;-80
2023/01/01 07:55:59;;;;;;;92.55;38.05;;;;;;;5.16;92.53;96139.09;5120350;27;20250;-79
2023/01/01 07:58:26;;;;;;;82.40;33.42;;;;;;;5.18;93.46;96139.66;5125938;27;20705;-80
2023/01/01 08:00:54;;;;;;;74.85;34.28;;;;;;;5.23;92.81;96150.44;5130442;27;20202;-79
2023/01/01 08:03:21;;;;;;;76.15;30.70;;;;;;;5.33;93.18;96154.00;5125411;27;20205;-79
2023/01/01 08:05:48;;;;;;;67.50;29.92;;;;;;;5.24;92.67;96152.06;5121177;27;20241;-79
2023/01/01 08:08:15;;;;;;;69.30;28.02;;;;;;;5.25;92.72;96164.44;5122531;27;20648;-79
2023/01/01 08:10:42;;;;;;;51.42;26.55;;;;;;;5.35;92.08;96159.94;5132796;27;20232;-80
2023/01/01 08:13:09;;;;;;;77.00;33.63;;;;;;;5.28;93.71;96163.91;5134898;27;20204;-79
2023/01/01 08:15:35;;;;;;;62.15;26.80;;;;;;;5.43;92.11;96164.03;5129932;27;20229;-79
2023/01/01 08:18:05;;;;;;;70.97;32.60;;;;;;;5.67;90.83;96172.53;5127329;27;20201;-80
2023/01/01 08:20:33;;;;;;;62.22;26.77;;;;;;;5.85;90.80;96169.44;5120587;27;20339;-79
2023/01/01 08:23:00;;;;;;;60.17;29.50;;;;;;;6.00;90.05;96169.56;5121943;27;20737;-78
2023/01/01 08:25:27;;;;;;;81.25;32.50;;;;;;;5.98;89.64;96174.41;5127658;27;20250;-78
2023/01/01 08:27:53;;;;;;;61.05;26.73;;;;;;;5.93;89.13;96162.78;5126737;27;20226;-80
2023/01/01 08:30:20;;;;;;;52.60;26.45;;;;;;;6.12;89.28;96174.75;5114113;28;20278;-79
2023/01/01 08:32:47;;;;;;;58.88;23.55;;;;;;;6.22;90.27;96169.41;5127149;27;20259;-79
2023/01/01 08:35:15;;;;;;;65.80;28.95;;;;;;;6.27;90.64;96172.13;5120259;27;20261;-79
2023/01/01 08:37:42;;;;;;;63.05;26.55;;;;;;;6.63;90.05;96165.00;5119575;27;20704;-79
2023/01/01 08:40:11;;;;;;;55.60;24.35;;;;;;;6.95;89.43;96164.81;5119811;27;20839;-79
2023/01/01 08:42:38;;;;;;;64.80;28.65;;;;;;;6.89;87.08;96163.19;5119831;27;20262;-79
2023/01/01 08:45:06;;;;;;;55.78;25.98;;;;;;;7.06;87.28;96161.06;5126524;27;20206;-79
2023/01/01 08:47:33;;;;;;;63.47;27.95;;;;;;;7.05;86.30;96162.13;5127146;27;20217;-80
2023/01/01 08:49:59;;;;;;;61.85;26.98;;;;;;;6.88;86.37;96161.56;5121348;27;20250;-80
2023/01/01 08:52:28;;;;;;;115.78;55.28;;;;;;;6.85;86.50;96156.69;5133865;27;20231;-79
2023/01/01 08:54:54;;;;;;;73.65;35.47;;;;;;;6.96;86.82;96158.34;5125034;27;20198;-79
2023/01/01 08:57:24;;;;;;;107.93;52.63;;;;;;;6.82;87.46;96145.66;5119723;27;20242;-80
2023/01/01 08:59:50;;;;;;;69.68;30.35;;;;;;;7.08;86.67;96155.41;5124607;27;20205;-79
2023/01/01 09:02:17;;;;;;;84.95;33.30;;;;;;;6.90;86.62;96154.03;5126637;27;20201;-79
2023/01/01 09:04:44;;;;;;;50.85;24.73;;;;;;;6.81;86.52;96152.94;5122183;27;20197;-79
2023/01/01 09:07:11;;;;;;;54.70;23.45;;;;;;;6.74;87.16;96149.66;5119421;27;20198;-79
2023/01/01 09:09:41;;;;;;;51.08;23.13;;;;;;;6.98;87.40;96150.78;5124024;27;20201;-79
2023/01/01 09:12:11;;;;;;;51.08;23.48;;;;;;;6.94;86.10;96141.66;5126111;27;20271;-79
2023/01/01 09:14:38;;;;;;;41.08;18.83;;;;;;;6.87;86.45;96149.16;5112576;28;20283;-80
2023/01/01 09:17:05;;;;;;;34.10;17.23;;;;;;;6.93;86.13;96140.03;5130357;27;20253;-79
2023/01/01 09:19:31;;;;;;;51.75;23.70;;;;;;;6.96;86.72;96131.41;5122341;27;20266;-79
2023/01/01 09:21:58;;;;;;;45.00;20.90;;;;;;;7.07;86.39;96137.63;5129760;27;20201;-80
2023/01/01 09:24:25;;;;;;;49.33;22.42;;;;;;;7.29;86.01;96118.47;5133490;27;20204;-79
2023/01/01 09:26:53;;;;;;;69.68;30.13;;;;;;;7.41;85.71;96121.72;5119188;27;20193;-79
2023/01/01 09:29:20;;;;;;;46.35;23.40;;;;;;;7.39;85.19;96113.09;5121874;27;20208;-79
2023/01/01 09:31:48;;;;;;;51.85;22.02;;;;;;;7.43;84.72;96108.78;5110826;28;20229;-79
2023/01/01 09:34:15;;;;;;;45.08;19.00;;;;;;;7.58;84.82;96116.84;5123604;27;20201;-79
2023/01/01 09:36:42;;;;;;;72.38;27.65;;;;;;;7.84;81.95;96110.34;5118900;27;20648;-80
2023/01/01 09:39:12;;;;;;;50.22;22.38;;;;;;;7.80;80.15;96103.84;5132482;27;20242;-79
2023/01/01 09:41:49;;;;;;;64.55;26.38;;;;;;;7.90;80.64;96102.22;5128699;27;20236;-80
2023/01/01 09:44:29;;;;;;;48.50;22.50;;;;;;;8.07;79.84;96098.09;5125174;27;20262;-80
2023/01/01 09:47:01;;;;;;;52.15;23.48;;;;;;;7.77;79.96;96104.44;5120560;27;20216;-79
2023/01/01 09:49:36;;;;;;;59.35;27.48;;;;;;;7.67;79.74;96101.72;5120142;27;20280;-79
2023/01/01 09:52:04;;;;;;;98.32;48.70;;;;;;;7.85;79.47;96106.56;5132380;27;20340;-80
2023/01/01 09:54:38;;;;;;;101.40;50.25;;;;;;;7.93;79.48;96096.25;5127508;27;20209;-80
2023/01/01 09:57:09;;;;;;;106.65;53.30;;;;;;;7.90;78.41;96086.03;5117579;27;20182;-79
2023/01/01 09:59:39;;;;;;;71.38;31.48;;;;;;;7.99;79.54;96084.38;5125333;27;20190;-80
2023/01/01 10:02:16;;;;;;;70.82;29.23;;;;;;;8.16;78.77;96084.88;5125645;27;20200;-79
2023/01/01 10:04:57;;;;;;;65.82;27.08;;;;;;;8.10;78.26;96085.97;5119293;27;20189;-78
2023/01/01 10:07:34;;;;;;;60.78;26.33;;;;;;;8.22;76.94;96075.66;5117627;27;20707;-79
2023/01/01 10:10:11;;;;;;;72.07;28.92;;;;;;;8.27;76.64;96091.84;5120329;27;20216;-80
2023/01/01 10:12:45;;;;;;;51.70;25.35;;;;;;;8.23;77.33;96079.97;5125833;27;20291;-80
2023/01/01 10:15:18;;;;;;;53.58;25.10;;;;;;;8.33;76.32;96089.97;5125433;27;20730;-78
2023/01/01 10:17:48;;;;;;;52.88;24.25;;;;;;;8.54;75.62;96080.66;5123983;27;20235;-80
2023/01/01 10:20:21;;;;;;;37.05;15.50;;;;;;;8.48;75.88;96081.75;5125397;27;20229;-78
2023/01/01 10:22:54;;;;;;;72.40;30.08;;;;;;;8.38;75.47;96082.63;5121308;27;20928;-79
2023/01/01 10:25:24;;;;;;;51.40;20.48;;;;;;;8.44;75.85;96081.53;5117776;27;20189;-79
2023/01/01 10:27:56;;;;;;;50.42;23.10;;;;;;;8.71;76.08;96074.91;5120211;27;20476;-80
2023/01/01 10:30:26;;;;;;;54.58;24.48;;;;;;;8.79;74.82;96071.59;5124921;27;20185;-79
2023/01/01 10:32:54;;;;;;;56.20;24.30;;;;;;;8.90;74.08;96067.72;5111510;28;20301;-80
2023/01/01 10:35:29;;;;;;;48.90;21.83;;;;;;;8.93;73.46;96061.75;5131345;27;20700;-80
2023/01/01 10:37:57;;;;;;;51.22;25.85;;;;;;;8.89;73.61;96060.72;5118044;27;20203;-79
2023/01/01 10:40:25;;;;;;;59.20;25.73;;;;;;;8.95;73.65;96059.59;5123763;27;20209;-78
2023/01/01 10:42:54;;;;;;;31.73;17.67;;;;;;;9.08;73.26;96058.13;5125948;27;20284;-80
2023/01/01 10:45:30;;;;;;;47.72;23.00;;;;;;;9.17;72.97;96057.25;5122468;27;20202;-79
2023/01/01 10:48:15;;;;;;;43.03;18.77;;;;;;;9.21;73.04;96050.19;5124812;27;20593;-78
2023/01/01 10:50:44;;;;;;;46.67;20.63;;;;;;;9.18;72.95;96039.13;5124407;27;20196;-79
2023/01/01 10:53:29;;;;;;;28.05;15.00;;;;;;;9.21;73.41;96042.06;5123253;27;20217;-79
2023/01/01 10:56:05;;;;;;;46.58;21.30;;;;;;;9.23;73.16;96029.09;5124086;27;20668;-80
2023/01/01 10:58:37;;;;;;;48.30;21.63;;;;;;;9.38;73.60;96028.13;5119088;27;20352;-78
2023/01/01 11:01:07;;;;;;;35.92;18.58;;;;;;;9.47;72.60;96022.91;5116522;27;20196;-80
2023/01/01 11:03:34;;;;;;;46.15;22.83;;;;;;;9.54;72.75;96029.59;5117893;27;20210;-79
2023/01/01 11:06:19;;;;;;;41.50;19.85;;;;;;;9.69;72.66;96012.41;5124759;27;20259;-79
2023/01/01 11:08:51;;;;;;;32.05;16.55;;;;;;;9.87;71.92;96017.03;5123908;27;20299;-78
2023/01/01 11:11:26;;;;;;;42.70;19.15;;;;;;;9.99;71.92;96009.31;5120925;27;20233;-79
2023/01/01 11:13:56;;;;;;;44.50;19.25;;;;;;;10.11;70.83;96008.13;5117026;28;20264;-80
2023/01/01 11:16:25;;;;;;;34.08;15.77;;;;;;;9.93;71.18;96006.97;5118798;27;20198;-79
2023/01/01 11:18:53;;;;;;;39.13;18.15;;;;;;;9.95;71.22;96002.91;5115683;27;20723;-80
2023/01/01 11:21:22;;;;;;;34.88;18.02;;;;;;;10.01;71.07;96006.31;5118516;27;20262;-79
2023/01/01 11:24:09;;;;;;;38.58;17.60;;;;;;;10.11;71.07;95995.38;5124107;28;20201;-79
2023/01/01 11:26:36;;;;;;;34.95;15.88;;;;;;;10.30;70.89;96003.53;5123810;28;20712;-77
2023/01/01 11:29:18;;;;;;;41.08;18.08;;;;;;;10.45;70.70;95999.81;5109918;28;20347;-78
2023/01/01 11:31:47;;;;;;;33.60;17.05;;;;;;;10.44;70.05;95988.19;5124572;28;20209;-80
2023/01/01 11:34:27;;;;;;;39.38;16.77;;;;;;;10.43;70.05;95986.56;5121204;28;20204;-78
2023/01/01 11:37:08;;;;;;;34.88;16.73;;;;;;;10.42;69.95;95982.25;5117533;28;20285;-80
2023/01/01 11:39:36;;;;;;;30.33;15.35;;;;;;;10.56;69.77;95972.28;5115686;28;20193;-80
2023/01/01 11:42:07;;;;;;;41.22;17.60;;;;;;;10.56;69.79;95969.56;5119096;28;20200;-80